Time;durP1;ratioP1;P1;durP2;ratioP2;P2;SDS_P1;SDS_P2;PMS_P1;PMS_P2;Temp;Humidity;BMP_temperature;BMP_pressure;BME280_temperature;BME280_humidity;BME280_pressure;Samples;Min_cycle;Max_cycle;Signal;HPM_P1;HPM_P2
2021/12/09 00:00:59;;;;;;;23.17;10.35;;;;;;;-0.01;100.00;100208.06;5069424;28;20059;-80
2021/12/09 00:03:28;;;;;;;21.95;9.80;;;;;;;-0.05;100.00;100206.31;5070467;28;20107;-80
2021/12/09 00:05:55;;;;;;;18.50;9.80;;;;;;;-0.05;100.00;100210.59;5071671;28;20464;-80
2021/12/09 00:08:21;;;;;;;22.58;9.95;;;;;;;-0.11;100.00;100200.28;5072157;28;20028;-80
2021/12/09 00:10:46;;;;;;;25.15;10.85;;;;;;;-0.06;100.00;100208.88;5070601;28;20020;-81
2021/12/09 00:13:12;;;;;;;26.40;10.35;;;;;;;-0.07;100.00;100204.59;5056019;28;20045;-80
2021/12/09 00:15:37;;;;;;;24.35;10.15;;;;;;;-0.08;100.00;100211.41;5065534;28;20068;-80
2021/12/09 00:18:03;;;;;;;20.52;10.38;;;;;;;-0.12;100.00;100209.69;5071432;28;20112;-81
2021/12/09 00:20:28;;;;;;;23.05;10.75;;;;;;;-0.12;100.00;100217.38;5071089;28;20024;-80
2021/12/09 00:22:53;;;;;;;19.63;10.02;;;;;;;-0.13;100.00;100207.09;5064158;28;20036;-81
2021/12/09 00:25:19;;;;;;;20.00;10.27;;;;;;;-0.14;100.00;100211.34;5051163;28;20017;-80
2021/12/09 00:27:44;;;;;;;23.63;10.15;;;;;;;-0.17;100.00;100216.44;5067045;28;20028;-80
2021/12/09 00:30:11;;;;;;;24.77;10.40;;;;;;;-0.18;100.00;100219.00;5051610;28;20052;-80
2021/12/09 00:32:38;;;;;;;19.55;10.15;;;;;;;-0.20;100.00;100215.56;5055631;28;20024;-81
2021/12/09 00:35:05;;;;;;;25.85;10.35;;;;;;;-0.22;100.00;100212.16;5074229;28;20381;-80
2021/12/09 00:37:50;;;;;;;22.98;9.63;;;;;;;-0.36;100.00;100206.84;5074649;28;20032;-80
2021/12/09 00:40:15;;;;;;;21.27;10.10;;;;;;;-0.26;100.00;100212.09;5075735;28;20032;-80
2021/12/09 00:42:40;;;;;;;18.33;9.57;;;;;;;-0.22;100.00;100215.56;5073687;28;20486;-80
2021/12/09 00:45:06;;;;;;;26.50;10.73;;;;;;;-0.17;100.00;100221.56;5074395;28;20039;-80
2021/12/09 00:47:31;;;;;;;18.05;10.07;;;;;;;-0.16;100.00;100213.06;5074682;28;20036;-80
2021/12/09 00:49:57;;;;;;;21.92;11.18;;;;;;;-0.09;100.00;100216.53;5075024;28;20059;-80
2021/12/09 00:52:26;;;;;;;20.73;11.07;;;;;;;-0.05;100.00;100216.56;5074727;28;20461;-80
2021/12/09 00:54:52;;;;;;;21.17;10.57;;;;;;;-0.02;100.00;100215.75;5071810;28;20099;-81
2021/12/09 00:57:18;;;;;;;23.85;10.90;;;;;;;0.02;100.00;100224.31;5068938;28;20162;-80
2021/12/09 00:59:43;;;;;;;26.13;10.95;;;;;;;0.01;100.00;100220.91;5073943;28;20386;-81
2021/12/09 01:02:10;;;;;;;26.45;10.32;;;;;;;-0.05;100.00;100215.72;5074918;28;20040;-80
2021/12/09 01:04:36;;;;;;;22.85;10.50;;;;;;;-0.08;100.00;100223.38;5074035;28;20063;-80
2021/12/09 01:07:03;;;;;;;26.88;10.98;;;;;;;-0.05;100.00;100224.25;5073788;28;20032;-80
2021/12/09 01:09:28;;;;;;;20.17;10.10;;;;;;;-0.11;100.00;100220.78;5074512;28;20450;-80
2021/12/09 01:11:54;;;;;;;22.73;10.20;;;;;;;-0.17;100.00;100220.72;5070814;28;20037;-80
2021/12/09 01:14:19;;;;;;;22.15;10.57;;;;;;;-0.19;100.00;100222.44;5062446;28;20071;-80
2021/12/09 01:16:44;;;;;;;21.55;10.52;;;;;;;-0.17;100.00;100226.69;5054739;28;20029;-80
2021/12/09 01:19:09;;;;;;;23.58;11.35;;;;;;;-0.18;100.00;100222.44;5072531;28;20081;-80
2021/12/09 01:21:35;;;;;;;24.00;12.13;;;;;;;-0.17;100.00;100230.97;5074321;28;20388;-80
2021/12/09 01:24:00;;;;;;;26.00;10.93;;;;;;;-0.24;100.00;100230.91;5074688;28;20081;-80
2021/12/09 01:26:27;;;;;;;24.00;10.88;;;;;;;-0.19;100.00;100238.66;5074275;28;20031;-80
2021/12/09 01:28:58;;;;;;;25.35;11.75;;;;;;;-0.24;100.00;100230.03;5074478;28;20020;-80
2021/12/09 01:31:28;;;;;;;24.02;11.43;;;;;;;-0.27;100.00;100224.88;5055895;28;20028;-80
2021/12/09 01:33:59;;;;;;;22.75;11.07;;;;;;;-0.29;100.00;100231.72;5059578;28;20056;-80
2021/12/09 01:36:24;;;;;;;27.02;12.15;;;;;;;-0.32;100.00;100234.25;5074675;28;20468;-80
2021/12/09 01:38:50;;;;;;;23.65;11.15;;;;;;;-0.34;100.00;100236.75;5074243;28;20030;-80
2021/12/09 01:41:15;;;;;;;24.48;11.07;;;;;;;-0.34;100.00;100239.31;5072942;28;20036;-80
2021/12/09 01:43:40;;;;;;;26.88;11.10;;;;;;;-0.37;100.00;100241.84;5073877;28;20111;-80
2021/12/09 01:46:07;;;;;;;22.10;11.65;;;;;;;-0.35;100.00;100239.31;5074577;28;20038;-80
2021/12/09 01:48:33;;;;;;;24.75;12.05;;;;;;;-0.40;100.00;100231.56;5073476;28;20021;-80
2021/12/09 01:50:59;;;;;;;32.85;11.02;;;;;;;-0.47;100.00;100232.34;5074170;28;20464;-80
2021/12/09 01:53:24;;;;;;;29.00;11.05;;;;;;;-0.47;100.00;100233.19;5074688;28;20100;-80
2021/12/09 01:55:50;;;;;;;23.88;10.88;;;;;;;-0.50;100.00;100222.94;5073163;28;20384;-80
2021/12/09 01:58:15;;;;;;;18.42;10.77;;;;;;;-0.54;100.00;100221.19;5064483;28;20466;-80
2021/12/09 02:00:40;;;;;;;23.17;11.40;;;;;;;-0.56;100.00;100227.97;5073767;28;20017;-80
2021/12/09 02:03:06;;;;;;;22.08;11.52;;;;;;;-0.61;100.00;100219.38;5073430;28;20024;-80
2021/12/09 02:05:32;;;;;;;23.42;11.02;;;;;;;-0.63;100.00;100227.88;5073823;28;20028;-80
2021/12/09 02:07:58;;;;;;;24.00;10.75;;;;;;;-0.66;100.00;100231.25;5054820;28;20063;-80
2021/12/09 02:10:25;;;;;;;25.60;10.40;;;;;;;-0.65;100.00;100227.03;5053558;28;20447;-80
2021/12/09 02:12:51;;;;;;;25.55;11.45;;;;;;;-0.68;100.00;100217.59;5064702;28;20044;-80
2021/12/09 02:15:20;;;;;;;27.90;11.70;;;;;;;-0.61;100.00;100229.63;5073884;28;20016;-80
2021/12/09 02:17:45;;;;;;;20.48;11.00;;;;;;;-0.60;100.00;100233.03;5070359;28;20500;-80
2021/12/09 02:20:11;;;;;;;22.88;11.75;;;;;;;-0.61;100.00;100219.38;5073462;28;20029;-80
2021/12/09 02:22:36;;;;;;;27.10;11.43;;;;;;;-0.61;100.00;100226.22;5072164;28;20111;-80
2021/12/09 02:25:03;;;;;;;22.90;11.45;;;;;;;-0.57;100.00;100221.13;5072479;28;20029;-80
2021/12/09 02:27:28;;;;;;;20.35;11.30;;;;;;;-0.58;100.00;100216.03;5073249;28;20366;-80
2021/12/09 02:29:55;;;;;;;18.63;11.20;;;;;;;-0.62;100.00;100214.22;5072657;28;20024;-80
2021/12/09 02:32:21;;;;;;;25.65;11.85;;;;;;;-0.64;100.00;100214.22;5072393;28;20112;-80
2021/12/09 02:34:46;;;;;;;26.55;11.60;;;;;;;-0.60;100.00;100215.13;5068524;28;20485;-80
2021/12/09 02:37:13;;;;;;;26.05;11.00;;;;;;;-0.58;100.00;100221.13;5064142;28;20040;-81
2021/12/09 02:39:43;;;;;;;27.73;11.88;;;;;;;-0.57;100.00;100215.16;5052966;28;20048;-81
2021/12/09 02:42:09;;;;;;;27.73;11.70;;;;;;;-0.55;100.00;100216.91;5064972;28;20464;-80
2021/12/09 02:44:34;;;;;;;24.73;12.23;;;;;;;-0.58;100.00;100219.44;5072709;28;20028;-81
2021/12/09 02:47:00;;;;;;;26.17;11.13;;;;;;;-0.58;100.00;100221.13;5072326;28;20059;-80
2021/12/09 02:49:28;;;;;;;30.65;11.25;;;;;;;-0.64;100.00;100223.63;5073320;28;20035;-80
2021/12/09 02:51:56;;;;;;;28.80;10.88;;;;;;;-0.64;100.00;100223.63;5072615;28;20443;-80
2021/12/09 02:54:23;;;;;;;26.17;11.10;;;;;;;-0.65;100.00;100221.91;5060507;28;20056;-80
2021/12/09 02:56:55;;;;;;;32.15;11.10;;;;;;;-0.66;100.00;100226.16;5052593;28;20044;-80
2021/12/09 02:59:21;;;;;;;28.77;9.93;;;;;;;-0.77;100.00;100214.94;5052496;28;20037;-80
2021/12/09 03:01:57;;;;;;;20.63;9.98;;;;;;;-0.72;100.00;100233.75;5068881;28;20037;-80
2021/12/09 03:04:35;;;;;;;25.80;10.77;;;;;;;-0.71;100.00;100226.09;5073284;28;20099;-80
2021/12/09 03:07:01;;;;;;;27.98;10.07;;;;;;;-0.78;100.00;100215.78;5072181;28;20073;-81
2021/12/09 03:09:28;;;;;;;25.65;11.60;;;;;;;-0.74;100.00;100227.75;5072981;28;20111;-80
2021/12/09 03:11:55;;;;;;;28.33;11.15;;;;;;;-0.72;100.00;100233.75;5071676;28;20036;-80
2021/12/09 03:14:23;;;;;;;27.88;10.00;;;;;;;-0.69;100.00;100240.59;5072712;28;20024;-80
2021/12/09 03:16:49;;;;;;;21.27;9.73;;;;;;;-0.74;100.00;100231.19;5051612;28;20037;-80
2021/12/09 03:19:14;;;;;;;24.73;10.45;;;;;;;-0.73;100.00;100250.81;5052038;28;20074;-80
2021/12/09 03:21:43;;;;;;;21.15;8.68;;;;;;;-0.72;100.00;100239.75;5052301;28;20021;-80
2021/12/09 03:24:19;;;;;;;23.42;9.10;;;;;;;-0.67;100.00;100255.16;5052853;28;20028;-80
2021/12/09 03:26:58;;;;;;;23.08;9.48;;;;;;;-0.71;100.00;100251.69;5051336;28;20063;-80
2021/12/09 03:29:28;;;;;;;21.20;8.77;;;;;;;-0.85;100.00;100237.00;5052934;28;20048;-80
2021/12/09 03:31:56;;;;;;;22.10;9.07;;;;;;;-0.76;100.00;100263.56;5051646;28;20032;-80
2021/12/09 03:34:25;;;;;;;17.80;8.95;;;;;;;-0.83;100.00;100248.13;5051663;28;20541;-80
2021/12/09 03:36:52;;;;;;;17.17;9.15;;;;;;;-0.79;100.00;100260.09;5066317;28;20028;-80
2021/12/09 03:39:21;;;;;;;24.67;8.63;;;;;;;-0.84;100.00;100257.50;5072325;28;20476;-80
2021/12/09 03:41:49;;;;;;;19.60;8.13;;;;;;;-0.80;100.00;100259.25;5071058;28;20491;-80
2021/12/09 03:44:14;;;;;;;23.25;8.85;;;;;;;-0.79;100.00;100252.44;5072587;28;20082;-80
2021/12/09 03:46:40;;;;;;;19.80;8.00;;;;;;;-0.77;100.00;100254.19;5070223;28;20549;-80
2021/12/09 03:49:05;;;;;;;19.73;7.40;;;;;;;-0.75;100.00;100256.78;5070090;28;20111;-80
2021/12/09 03:51:32;;;;;;;25.48;9.23;;;;;;;-0.74;100.00;100267.00;5071521;28;20472;-81
2021/12/09 03:53:57;;;;;;;25.10;8.90;;;;;;;-0.75;100.00;100264.44;5068763;28;20522;-80
2021/12/09 03:56:22;;;;;;;18.02;8.18;;;;;;;-0.78;100.00;100267.81;5062646;28;20464;-80
2021/12/09 03:58:48;;;;;;;23.80;8.60;;;;;;;-0.80;100.00;100274.59;5052670;28;20441;-80
2021/12/09 04:01:14;;;;;;;16.58;8.48;;;;;;;-0.85;100.00;100273.72;5050978;28;20024;-80
2021/12/09 04:03:39;;;;;;;20.83;8.10;;;;;;;-0.86;100.00;100281.34;5069972;28;20031;-80
2021/12/09 04:06:04;;;;;;;21.98;8.20;;;;;;;-0.89;100.00;100274.47;5070660;28;20035;-80
2021/12/09 04:08:29;;;;;;;18.20;7.75;;;;;;;-0.87;100.00;100270.25;5070544;28;20522;-81
2021/12/09 04:10:55;;;;;;;19.73;8.10;;;;;;;-0.91;100.00;100253.16;5071799;28;20028;-80
2021/12/09 04:13:21;;;;;;;17.65;8.10;;;;;;;-0.87;100.00;100260.00;5071498;28;20079;-80
2021/12/09 04:15:46;;;;;;;17.30;7.60;;;;;;;-0.90;100.00;100254.84;5069541;28;20028;-80
2021/12/09 04:18:12;;;;;;;25.73;8.75;;;;;;;-0.86;100.00;100264.28;5071251;28;20495;-80
2021/12/09 04:20:37;;;;;;;21.70;7.88;;;;;;;-0.87;100.00;100270.25;5071234;28;20032;-80
2021/12/09 04:23:04;;;;;;;22.88;7.50;;;;;;;-0.89;100.00;100264.25;5071016;28;20025;-81
2021/12/09 04:25:29;;;;;;;14.68;7.30;;;;;;;-0.88;100.00;100271.09;5071130;28;20029;-81
2021/12/09 04:27:55;;;;;;;18.73;8.05;;;;;;;-0.92;100.00;100271.88;5070694;28;20035;-80
2021/12/09 04:30:22;;;;;;;21.70;7.15;;;;;;;-0.95;100.00;100269.28;5069432;28;20892;-80
2021/12/09 04:32:50;;;;;;;19.77;7.97;;;;;;;-0.96;100.00;100281.22;5070380;28;20357;-80
2021/12/09 04:35:15;;;;;;;18.35;6.78;;;;;;;-0.94;100.00;100268.44;5071655;28;20041;-80
2021/12/09 04:37:42;;;;;;;21.67;7.10;;;;;;;-0.98;100.00;100275.22;5070159;28;20089;-80
2021/12/09 04:40:09;;;;;;;17.50;6.95;;;;;;;-1.05;100.00;100282.78;5071258;28;20071;-80
2021/12/09 04:42:35;;;;;;;20.77;7.05;;;;;;;-1.08;100.00;100282.72;5071745;28;20029;-80
2021/12/09 04:45:01;;;;;;;15.13;7.15;;;;;;;-1.11;100.00;100288.69;5062316;28;20020;-80
2021/12/09 04:47:26;;;;;;;12.80;6.70;;;;;;;-1.09;100.00;100288.69;5070206;28;20380;-80
2021/12/09 04:49:51;;;;;;;18.30;7.57;;;;;;;-1.09;100.00;100289.53;5070574;28;20086;-80
2021/12/09 04:52:17;;;;;;;15.05;7.32;;;;;;;-1.09;100.00;100284.44;5070647;28;20705;-80
2021/12/09 04:54:42;;;;;;;17.75;6.43;;;;;;;-1.09;100.00;100283.56;5070999;28;20032;-80
2021/12/09 04:57:09;;;;;;;19.40;6.93;;;;;;;-1.14;100.00;100280.97;5071470;28;20036;-80
2021/12/09 04:59:35;;;;;;;25.83;7.25;;;;;;;-1.09;100.00;100278.47;5069956;28;20384;-80
2021/12/09 05:02:00;;;;;;;15.27;7.15;;;;;;;-1.10;100.00;100280.16;5070359;28;20025;-80
2021/12/09 05:04:27;;;;;;;25.48;7.93;;;;;;;-1.03;100.00;100283.66;5070242;28;20040;-80
2021/12/09 05:06:53;;;;;;;18.77;7.68;;;;;;;-1.01;100.00;100282.84;5070343;28;20031;-80
2021/12/09 05:09:18;;;;;;;23.70;7.32;;;;;;;-1.06;100.00;100275.94;5071201;28;20029;-80
2021/12/09 05:14:11;;;;;;;19.45;7.30;;;;;;;-1.05;100.00;100285.34;5068369;28;20041;-80
2021/12/09 05:16:37;;;;;;;17.70;7.40;;;;;;;-1.03;100.00;100294.75;5051099;28;20035;-80
2021/12/09 05:19:04;;;;;;;26.92;7.47;;;;;;;-1.00;100.00;100301.63;5054760;28;20385;-80
2021/12/09 05:21:36;;;;;;;19.40;7.55;;;;;;;-1.04;100.00;100290.50;5054803;28;20029;-80
2021/12/09 05:24:02;;;;;;;19.80;7.72;;;;;;;-1.02;100.00;100293.91;5054651;28;20469;-80
2021/12/09 05:26:33;;;;;;;21.73;7.63;;;;;;;-1.01;100.00;100289.69;5055945;28;20126;-80
2021/12/09 05:28:58;;;;;;;19.45;7.60;;;;;;;-0.94;100.00;100301.72;5073848;28;20476;-80
2021/12/09 05:34:11;;;;;;;18.08;8.35;;;;;;;-0.99;100.00;100291.41;5054320;28;20043;-80
2021/12/09 05:36:36;;;;;;;20.95;7.88;;;;;;;-0.99;100.00;100296.50;5054517;28;20025;-80
2021/12/09 05:39:04;;;;;;;17.20;7.85;;;;;;;-0.93;100.00;100305.13;5054618;28;20036;-80
2021/12/09 05:41:30;;;;;;;19.27;7.72;;;;;;;-0.94;100.00;100306.84;5058201;28;20112;-80
2021/12/09 05:43:55;;;;;;;21.83;7.88;;;;;;;-0.91;100.00;100304.31;5074415;28;20480;-80
2021/12/09 05:46:22;;;;;;;25.70;8.40;;;;;;;-0.90;100.00;100310.28;5074075;28;20043;-80
2021/12/09 05:48:49;;;;;;;19.02;7.53;;;;;;;-0.96;100.00;100304.22;5073316;28;20145;-80
2021/12/09 05:51:14;;;;;;;21.45;8.35;;;;;;;-0.97;100.00;100310.19;5074681;28;20025;-80
2021/12/09 05:53:39;;;;;;;17.02;7.43;;;;;;;-0.95;100.00;100328.13;5073053;28;20472;-80
2021/12/09 05:56:05;;;;;;;28.67;8.35;;;;;;;-0.94;100.00;100322.19;5074435;28;20063;-80
2021/12/09 05:58:30;;;;;;;22.05;8.13;;;;;;;-1.00;100.00;100311.84;5071997;28;20025;-80
2021/12/09 06:00:55;;;;;;;23.23;8.90;;;;;;;-0.99;100.00;100316.97;5073428;28;20423;-80
2021/12/09 06:03:21;;;;;;;19.20;8.70;;;;;;;-1.03;100.00;100314.38;5070039;28;20025;-80
2021/12/09 06:05:48;;;;;;;19.15;8.50;;;;;;;-1.06;100.00;100307.50;5064549;28;20020;-80
2021/12/09 06:08:13;;;;;;;24.73;9.45;;;;;;;-1.01;100.00;100316.13;5073298;28;20028;-80
2021/12/09 06:10:39;;;;;;;19.38;8.98;;;;;;;-1.00;100.00;100319.53;5073835;28;20082;-80
2021/12/09 06:13:04;;;;;;;18.10;8.05;;;;;;;-1.00;100.00;100316.97;5070875;28;20516;-80
2021/12/09 06:15:30;;;;;;;19.88;8.63;;;;;;;-1.01;100.00;100317.81;5072491;28;20115;-80
2021/12/09 06:17:56;;;;;;;22.05;8.73;;;;;;;-1.03;100.00;100311.81;5073255;28;20071;-79
2021/12/09 06:20:21;;;;;;;23.58;9.23;;;;;;;-1.04;100.00;100321.19;5072004;28;20052;-80
2021/12/09 06:22:46;;;;;;;22.60;9.77;;;;;;;-1.03;100.00;100319.50;5072379;28;20029;-80
2021/12/09 06:25:17;;;;;;;19.98;9.05;;;;;;;-1.03;100.00;100311.81;5072630;28;20039;-80
2021/12/09 06:27:43;;;;;;;27.48;8.85;;;;;;;-1.05;100.00;100316.03;5065173;28;20454;-79
2021/12/09 06:30:09;;;;;;;23.33;9.52;;;;;;;-1.06;100.00;100319.44;5052046;28;20059;-79
2021/12/09 06:32:34;;;;;;;20.52;9.10;;;;;;;-1.10;100.00;100310.00;5068115;28;20058;-80
2021/12/09 06:35:00;;;;;;;23.00;9.40;;;;;;;-1.05;100.00;100326.25;5073612;28;20024;-80
2021/12/09 06:37:25;;;;;;;21.77;8.98;;;;;;;-1.06;100.00;100315.19;5072691;28;20063;-80
2021/12/09 06:39:50;;;;;;;31.85;10.68;;;;;;;-1.08;100.00;100314.31;5072123;28;20032;-80
2021/12/09 06:42:17;;;;;;;23.30;9.30;;;;;;;-1.07;100.00;100321.13;5073610;28;20533;-80
2021/12/09 06:44:43;;;;;;;15.52;8.75;;;;;;;-1.09;100.00;100325.38;5057855;28;20025;-80
2021/12/09 06:47:08;;;;;;;25.25;9.43;;;;;;;-1.13;100.00;100326.16;5053621;28;20079;-80
2021/12/09 06:49:33;;;;;;;21.80;8.75;;;;;;;-1.19;100.00;100332.03;5053364;28;20385;-80
2021/12/09 06:51:59;;;;;;;30.75;9.73;;;;;;;-1.20;100.00;100330.31;5052400;28;20366;-80
2021/12/09 06:54:24;;;;;;;20.95;9.15;;;;;;;-1.17;100.00;100329.50;5053148;28;20127;-80
2021/12/09 06:56:49;;;;;;;24.52;9.02;;;;;;;-1.14;100.00;100333.81;5051904;28;20091;-80
2021/12/09 06:59:15;;;;;;;26.63;9.35;;;;;;;-1.21;100.00;100327.72;5053088;28;20017;-80
2021/12/09 07:01:40;;;;;;;17.88;8.57;;;;;;;-1.20;100.00;100335.44;5052538;28;20457;-80
2021/12/09 07:04:08;;;;;;;22.35;8.75;;;;;;;-1.26;100.00;100324.25;5052456;28;20045;-80
2021/12/09 07:06:33;;;;;;;25.40;9.05;;;;;;;-1.29;100.00;100330.16;5052901;28;20108;-80
2021/12/09 07:09:00;;;;;;;35.00;9.93;;;;;;;-1.25;100.00;100347.28;5058226;28;20029;-80
2021/12/09 07:11:26;;;;;;;22.13;9.18;;;;;;;-1.23;100.00;100335.38;5071969;28;20396;-80
2021/12/09 07:13:52;;;;;;;21.63;9.15;;;;;;;-1.18;100.00;100343.13;5072431;28;20028;-80
2021/12/09 07:16:17;;;;;;;21.30;8.65;;;;;;;-1.25;100.00;100339.59;5072871;28;20108;-80
2021/12/09 07:18:43;;;;;;;23.05;8.15;;;;;;;-1.27;100.00;100338.72;5058374;28;20397;-80
2021/12/09 07:21:08;;;;;;;24.92;9.55;;;;;;;-1.22;100.00;100339.66;5067973;28;20031;-80
2021/12/09 07:23:34;;;;;;;25.95;10.45;;;;;;;-1.14;100.00;100351.72;5072160;28;20028;-80
2021/12/09 07:26:00;;;;;;;19.70;8.35;;;;;;;-1.14;100.00;100346.63;5071203;28;20025;-80
2021/12/09 07:28:25;;;;;;;23.08;9.43;;;;;;;-1.11;100.00;100342.41;5072449;28;20028;-80
2021/12/09 07:30:51;;;;;;;22.42;9.77;;;;;;;-1.07;100.00;100348.44;5071467;28;20020;-80
2021/12/09 07:33:17;;;;;;;23.95;10.15;;;;;;;-1.06;100.00;100338.19;5071809;28;20032;-80
2021/12/09 07:35:43;;;;;;;28.02;9.68;;;;;;;-1.05;100.00;100339.91;5067371;28;20384;-79
2021/12/09 07:38:09;;;;;;;25.73;10.10;;;;;;;-1.03;100.00;100348.50;5057041;28;20091;-79
2021/12/09 07:40:35;;;;;;;26.50;9.65;;;;;;;-1.02;100.00;100349.34;5051340;28;20079;-79
2021/12/09 07:43:03;;;;;;;27.63;10.35;;;;;;;-1.05;100.00;100350.16;5071236;28;20447;-79
2021/12/09 07:45:28;;;;;;;19.98;9.60;;;;;;;-1.07;100.00;100353.53;5071994;28;20043;-79
2021/12/09 07:47:54;;;;;;;30.02;10.98;;;;;;;-1.17;100.00;100332.06;5057316;28;20029;-79
2021/12/09 07:50:22;;;;;;;26.42;9.68;;;;;;;-1.02;100.00;100362.13;5071145;28;20036;-79
2021/12/09 07:52:50;;;;;;;20.60;11.68;;;;;;;-1.01;100.00;100351.09;5071336;28;20077;-79
2021/12/09 07:55:17;;;;;;;30.73;10.82;;;;;;;-0.97;100.00;100357.97;5068274;28;20012;-79
2021/12/09 07:57:43;;;;;;;21.13;10.55;;;;;;;-0.98;100.00;100349.44;5069899;28;20393;-79
2021/12/09 08:00:15;;;;;;;28.27;11.90;;;;;;;-0.92;100.00;100346.09;5059785;28;20046;-78
2021/12/09 08:02:42;;;;;;;25.67;10.65;;;;;;;-0.90;100.00;100343.56;5069735;28;20039;-78
2021/12/09 08:05:08;;;;;;;33.50;11.38;;;;;;;-0.80;100.00;100353.94;5060195;28;20020;-78
2021/12/09 08:07:34;;;;;;;24.40;11.32;;;;;;;-0.69;100.00;100363.47;5068644;28;20033;-78
2021/12/09 08:09:59;;;;;;;28.85;11.30;;;;;;;-0.61;100.00;100364.47;5071525;28;20025;-78
2021/12/09 08:12:25;;;;;;;24.25;11.43;;;;;;;-0.51;100.00;100369.72;5071703;28;20055;-79
2021/12/09 08:14:50;;;;;;;25.85;11.52;;;;;;;-0.39;100.00;100369.06;5066247;28;20155;-78
2021/12/09 08:17:58;;;;;;;29.13;11.32;;;;;;;-0.29;100.00;100364.91;5071977;28;20025;-78
2021/12/09 08:20:13;;;;;;;32.35;11.27;;;;;;;-0.14;100.00;100377.91;5069313;28;20048;-79
2021/12/09 08:22:38;;;;;;;28.23;12.15;;;;;;;-0.03;100.00;100378.06;5068508;28;20032;-79
2021/12/09 08:25:06;;;;;;;27.52;11.82;;;;;;;0.03;100.00;100365.28;5070914;28;20111;-79
2021/12/09 08:27:32;;;;;;;22.23;10.90;;;;;;;0.12;100.00;100370.53;5071988;28;20039;-79
2021/12/09 08:30:00;;;;;;;24.23;11.07;;;;;;;0.19;100.00;100369.75;5071100;28;20036;-79
2021/12/09 08:32:26;;;;;;;22.77;10.23;;;;;;;0.24;100.00;100369.81;5071489;28;20115;-79
2021/12/09 08:34:51;;;;;;;28.65;10.50;;;;;;;0.26;100.00;100364.69;5070996;28;20103;-79
2021/12/09 08:37:16;;;;;;;22.52;9.90;;;;;;;0.32;100.00;100377.56;5069470;28;20392;-79
2021/12/09 08:39:41;;;;;;;26.17;10.05;;;;;;;0.34;100.00;100368.22;5071358;28;20115;-79
2021/12/09 08:42:07;;;;;;;22.80;9.15;;;;;;;0.32;100.00;100357.91;5071403;28;20395;-80
2021/12/09 08:44:32;;;;;;;19.83;9.07;;;;;;;0.40;100.00;100366.56;5070487;28;20070;-80
2021/12/09 08:46:57;;;;;;;20.52;9.43;;;;;;;0.42;100.00;100370.00;5071451;28;20476;-80
2021/12/09 08:49:23;;;;;;;23.38;9.50;;;;;;;0.50;100.00;100372.66;5070961;28;20141;-79
2021/12/09 08:51:48;;;;;;;16.98;8.52;;;;;;;0.55;100.00;100373.53;5069990;28;20068;-79
2021/12/09 08:54:15;;;;;;;18.98;8.57;;;;;;;0.61;100.00;100380.44;5075201;28;20020;-79
2021/12/09 08:56:40;;;;;;;19.45;9.18;;;;;;;0.64;100.00;100383.03;5074223;28;20031;-79
2021/12/09 08:59:06;;;;;;;20.98;9.13;;;;;;;0.68;100.00;100377.94;5075702;28;20029;-79
2021/12/09 09:01:35;;;;;;;19.88;9.05;;;;;;;0.74;100.00;100374.56;5075341;28;20035;-79
2021/12/09 09:04:01;;;;;;;20.27;8.50;;;;;;;0.79;100.00;100379.75;5074268;28;20525;-79
2021/12/09 09:06:29;;;;;;;18.70;8.77;;;;;;;0.86;100.00;100386.66;5074287;28;20393;-80
2021/12/09 09:08:57;;;;;;;19.27;8.93;;;;;;;0.88;100.00;100377.25;5065642;28;20041;-79
2021/12/09 09:11:23;;;;;;;15.57;8.40;;;;;;;0.95;100.00;100381.63;5054467;28;20115;-80
2021/12/09 09:13:48;;;;;;;20.48;9.05;;;;;;;0.99;100.00;100382.50;5054704;28;20473;-80
2021/12/09 09:16:14;;;;;;;21.42;9.65;;;;;;;1.06;100.00;100372.28;5055143;28;20477;-80
2021/12/09 09:18:39;;;;;;;16.60;8.55;;;;;;;1.09;100.00;100372.31;5054142;28;20072;-79
2021/12/09 09:21:05;;;;;;;17.50;9.00;;;;;;;1.16;100.00;100368.94;5054999;28;20025;-80
2021/12/09 09:23:30;;;;;;;16.65;7.55;;;;;;;1.25;100.00;100372.44;5065477;28;20021;-80
2021/12/09 09:25:55;;;;;;;19.80;8.80;;;;;;;1.31;100.00;100367.34;5053971;28;20072;-80
2021/12/09 09:28:22;;;;;;;18.48;8.88;;;;;;;1.27;100.00;100358.72;5071687;28;20086;-79
2021/12/09 09:30:53;;;;;;;20.48;9.02;;;;;;;1.42;100.00;100378.53;5074500;28;20028;-80
2021/12/09 09:33:21;;;;;;;19.20;8.27;;;;;;;1.43;100.00;100382.81;5074147;28;20029;-80
2021/12/09 09:35:47;;;;;;;22.63;9.52;;;;;;;1.46;100.00;100382.81;5074144;28;20033;-80
2021/12/09 09:38:13;;;;;;;19.33;9.82;;;;;;;1.52;100.00;100384.59;5066715;28;20097;-80
2021/12/09 09:40:51;;;;;;;22.05;9.05;;;;;;;1.58;100.00;100382.06;5058432;28;20028;-79
2021/12/09 09:46:06;;;;;;;17.10;9.10;;;;;;;1.66;100.00;100379.50;5058493;28;20115;-79
2021/12/09 09:48:33;;;;;;;18.55;8.73;;;;;;;1.70;100.00;100386.38;5082665;28;20433;-79
2021/12/09 09:50:59;;;;;;;20.27;9.70;;;;;;;1.69;100.00;100384.66;5054393;28;20037;-79
2021/12/09 09:53:24;;;;;;;23.05;9.98;;;;;;;1.69;100.00;100392.38;5053879;28;20074;-79
2021/12/09 09:55:50;;;;;;;20.45;9.93;;;;;;;1.68;100.00;100390.66;5056039;28;20029;-79
2021/12/09 09:58:16;;;;;;;20.70;9.40;;;;;;;1.68;100.00;100399.25;5069575;28;20085;-79
2021/12/09 10:00:42;;;;;;;18.95;9.85;;;;;;;1.74;100.00;100398.41;5072986;28;20044;-79
2021/12/09 10:03:16;;;;;;;20.02;9.23;;;;;;;1.86;100.00;100398.47;5073663;28;20027;-79
2021/12/09 10:05:44;;;;;;;20.77;9.55;;;;;;;1.96;100.00;100392.53;5072514;28;20155;-79
2021/12/09 10:08:12;;;;;;;18.65;9.80;;;;;;;2.06;100.00;100402.00;5073822;28;20051;-79
2021/12/09 10:10:39;;;;;;;17.77;9.35;;;;;;;2.09;100.00;100389.16;5072968;28;20025;-79
2021/12/09 10:13:06;;;;;;;22.48;9.40;;;;;;;2.16;100.00;100396.88;5073980;28;20064;-79
2021/12/09 10:15:47;;;;;;;17.35;8.82;;;;;;;2.21;100.00;100396.03;5056472;28;20032;-79
2021/12/09 10:18:30;;;;;;;19.08;8.70;;;;;;;2.20;100.00;100388.34;5054103;28;20033;-79
2021/12/09 10:20:56;;;;;;;18.17;9.13;;;;;;;2.09;100.00;100355.72;5053157;28;20036;-79
2021/12/09 10:23:50;;;;;;;19.80;9.27;;;;;;;2.27;100.00;100375.50;5054224;28;20385;-79
2021/12/09 10:26:26;;;;;;;16.80;8.75;;;;;;;2.27;100.00;100375.50;5060417;28;20428;-79
2021/12/09 10:29:06;;;;;;;17.88;8.77;;;;;;;2.29;100.00;100370.38;5052745;28;20365;-79
2021/12/09 10:31:46;;;;;;;16.88;9.20;;;;;;;2.39;100.00;100361.81;5056867;28;20025;-79
2021/12/09 10:34:28;;;;;;;20.90;9.43;;;;;;;2.49;100.00;100363.53;5063887;28;20182;-79
2021/12/09 10:37:21;;;;;;;15.85;9.90;;;;;;;2.52;100.00;100366.13;5072633;28;20041;-79
2021/12/09 10:39:54;;;;;;;16.00;8.93;;;;;;;2.43;100.00;100354.97;5065804;28;20025;-79
2021/12/09 10:42:25;;;;;;;16.75;8.85;;;;;;;2.45;100.00;100368.66;5068512;28;20271;-80
2021/12/09 10:44:54;;;;;;;23.98;10.45;;;;;;;2.43;100.00;100371.25;5053805;28;20025;-79
2021/12/09 10:47:34;;;;;;;18.80;9.95;;;;;;;2.43;100.00;100367.81;5066957;28;20035;-80
2021/12/09 10:50:07;;;;;;;15.48;8.77;;;;;;;2.42;100.00;100364.41;5071580;28;20027;-80
2021/12/09 10:52:41;;;;;;;14.03;8.63;;;;;;;2.50;100.00;100370.41;5072046;28;20028;-79
2021/12/09 10:55:12;;;;;;;18.35;9.65;;;;;;;2.52;100.00;100381.56;5071302;28;20063;-79
2021/12/09 10:57:38;;;;;;;14.07;9.18;;;;;;;2.54;100.00;100373.84;5071191;28;20056;-79
2021/12/09 11:00:38;;;;;;;14.27;9.20;;;;;;;2.54;100.00;100376.41;5059376;28;20495;-80
2021/12/09 11:03:10;;;;;;;16.98;8.80;;;;;;;2.49;100.00;100368.69;5029364;28;20053;-79
2021/12/09 11:05:41;;;;;;;15.75;8.50;;;;;;;2.50;100.00;100378.13;5070370;28;20107;-79
2021/12/09 11:08:19;;;;;;;17.02;9.93;;;;;;;2.58;100.00;100373.84;5054017;28;20040;-80
2021/12/09 11:10:47;;;;;;;17.13;10.20;;;;;;;2.68;100.00;100366.13;5071576;28;20035;-79
2021/12/09 11:13:15;;;;;;;16.92;10.05;;;;;;;2.75;100.00;100360.16;5071288;28;20040;-79
2021/12/09 11:15:57;;;;;;;15.60;9.57;;;;;;;2.80;100.00;100356.69;5071566;28;20020;-79
2021/12/09 11:18:45;;;;;;;17.35;9.73;;;;;;;2.87;100.00;100362.72;5071594;28;20025;-79